createdAt,value
2023-05-17T00:00:55.748Z,6.29
2023-05-17T00:03:22.557Z,6.29
2023-05-17T00:05:49.314Z,6.50
2023-05-17T00:08:16.301Z,6.54
2023-05-17T00:10:43.381Z,6.53
2023-05-17T00:13:10.191Z,6.62
2023-05-17T00:15:36.949Z,6.44
2023-05-17T00:18:03.878Z,6.20
2023-05-17T00:20:30.722Z,6.09
2023-05-17T00:22:57.411Z,6.26
2023-05-17T00:25:24.148Z,6.35
2023-05-17T00:27:50.898Z,6.26
2023-05-17T00:30:17.680Z,6.23
2023-05-17T00:32:46.859Z,6.28
2023-05-17T00:35:14.110Z,6.30
2023-05-17T00:37:40.920Z,6.02
2023-05-17T00:40:08.357Z,6.14
2023-05-17T00:42:35.124Z,6.02
2023-05-17T00:45:01.852Z,6.12
2023-05-17T00:47:28.611Z,5.91
2023-05-17T00:49:55.649Z,5.93
2023-05-17T00:52:22.376Z,5.95
2023-05-17T00:54:50.740Z,5.94
2023-05-17T00:57:17.868Z,5.77
2023-05-17T00:59:45.123Z,5.83
2023-05-17T01:02:12.089Z,5.83
2023-05-17T01:04:39.198Z,5.58
2023-05-17T01:07:06.027Z,5.55
2023-05-17T01:09:33.008Z,5.44
2023-05-17T01:12:37.813Z,5.59
2023-05-17T01:15:13.228Z,5.63
2023-05-17T01:17:50.712Z,5.52
2023-05-17T01:20:28.454Z,5.26
2023-05-17T01:23:23.895Z,5.17
2023-05-17T01:26:00.741Z,5.21
2023-05-17T01:28:28.279Z,5.16
2023-05-17T01:30:57.563Z,5.09
2023-05-17T01:33:24.498Z,4.96
2023-05-17T01:35:51.285Z,5.04
2023-05-17T01:38:17.934Z,4.75
2023-05-17T01:41:07.964Z,4.86
2023-05-17T01:43:46.579Z,4.85
2023-05-17T01:46:29.893Z,4.88
2023-05-17T01:49:26.915Z,4.76
2023-05-17T01:51:53.516Z,4.87
2023-05-17T01:54:23.030Z,4.80
2023-05-17T01:56:59.322Z,4.56
2023-05-17T01:59:27.617Z,4.54
2023-05-17T02:01:57.213Z,4.44
2023-05-17T02:04:23.983Z,4.33
2023-05-17T02:06:50.969Z,4.26
2023-05-17T02:09:17.669Z,4.19
2023-05-17T02:11:44.437Z,4.26
2023-05-17T02:14:11.150Z,4.23
2023-05-17T02:16:37.851Z,4.15
2023-05-17T02:19:04.625Z,4.00
2023-05-17T02:21:31.348Z,3.98
2023-05-17T02:23:58.008Z,3.98
2023-05-17T02:26:24.629Z,4.01
2023-05-17T02:28:51.317Z,3.97
2023-05-17T02:31:18.010Z,3.88
2023-05-17T02:33:44.821Z,3.79
2023-05-17T02:36:11.494Z,3.78
2023-05-17T02:38:38.121Z,3.87
2023-05-17T02:41:04.931Z,3.73
2023-05-17T02:43:31.677Z,3.66
2023-05-17T02:45:58.536Z,3.82
2023-05-17T02:48:25.249Z,3.73
2023-05-17T02:50:52.016Z,3.74
2023-05-17T02:53:18.710Z,3.64
2023-05-17T02:55:45.445Z,3.74
2023-05-17T02:58:12.113Z,3.75
2023-05-17T03:00:38.911Z,3.77
2023-05-17T03:03:05.943Z,3.74
2023-05-17T03:05:33.679Z,3.85
2023-05-17T03:08:00.386Z,3.88
2023-05-17T03:10:27.100Z,3.88
2023-05-17T03:12:53.844Z,3.84
2023-05-17T03:15:20.613Z,3.57
2023-05-17T03:17:47.459Z,3.71
2023-05-17T03:20:14.557Z,3.77
2023-05-17T03:22:41.228Z,3.71
2023-05-17T03:25:08.435Z,3.70
2023-05-17T03:27:35.313Z,3.65
2023-05-17T03:30:02.267Z,3.80
2023-05-17T03:32:29.098Z,3.68
2023-05-17T03:34:55.778Z,3.74
2023-05-17T03:37:22.881Z,3.86
2023-05-17T03:39:49.607Z,3.82
2023-05-17T03:42:16.540Z,3.79
2023-05-17T03:44:43.215Z,3.84
2023-05-17T03:47:09.906Z,3.83
2023-05-17T03:49:36.579Z,3.90
2023-05-17T03:52:03.622Z,3.93
2023-05-17T03:54:30.344Z,4.02
2023-05-17T03:56:57.049Z,4.02
2023-05-17T03:59:24.049Z,4.08
2023-05-17T04:01:50.728Z,4.09
2023-05-17T04:04:17.467Z,4.13
2023-05-17T04:06:44.305Z,4.07
2023-05-17T04:09:13.119Z,4.16
2023-05-17T04:11:40.992Z,4.11
2023-05-17T04:14:07.932Z,4.13
2023-05-17T04:16:34.633Z,4.24
2023-05-17T04:19:01.948Z,4.25
2023-05-17T04:21:28.874Z,4.26
2023-05-17T04:23:55.625Z,4.45
2023-05-17T04:26:22.600Z,4.62
2023-05-17T04:28:49.258Z,4.64
2023-05-17T04:31:16.978Z,4.54
2023-05-17T04:33:43.769Z,4.61
2023-05-17T04:36:10.465Z,4.74
2023-05-17T04:38:37.092Z,4.88
2023-05-17T04:41:05.319Z,4.76
2023-05-17T04:43:33.045Z,4.90
2023-05-17T04:46:00.199Z,4.98
2023-05-17T04:48:27.718Z,5.02
2023-05-17T04:50:54.662Z,5.18
2023-05-17T04:53:21.650Z,5.23
2023-05-17T04:55:48.656Z,5.08
2023-05-17T04:58:15.321Z,5.18
2023-05-17T05:00:42.074Z,5.38
2023-05-17T05:03:08.833Z,5.38
2023-05-17T05:05:35.695Z,5.37
2023-05-17T05:08:02.562Z,5.43
2023-05-17T05:10:29.467Z,5.30
2023-05-17T05:12:56.248Z,5.37
2023-05-17T05:15:22.936Z,5.37
2023-05-17T05:17:49.751Z,5.63
2023-05-17T05:20:16.764Z,5.84
2023-05-17T05:22:43.504Z,5.80
2023-05-17T05:25:10.315Z,5.84
2023-05-17T05:27:37.118Z,5.91
2023-05-17T05:30:04.440Z,6.17
2023-05-17T05:32:31.277Z,6.18
2023-05-17T05:34:58.031Z,5.98
2023-05-17T05:37:24.756Z,6.36
2023-05-17T05:39:51.427Z,6.37
2023-05-17T05:42:18.436Z,7.26
2023-05-17T05:44:45.226Z,7.38
2023-05-17T05:47:12.065Z,8.08
2023-05-17T05:49:38.745Z,7.55
2023-05-17T05:52:05.580Z,8.54
2023-05-17T05:54:32.358Z,8.82
2023-05-17T05:57:00.760Z,9.23
2023-05-17T05:59:27.791Z,7.78
2023-05-17T06:01:54.438Z,12.62
2023-05-17T06:04:24.632Z,10.68
2023-05-17T06:06:56.658Z,10.88
2023-05-17T06:09:23.412Z,14.19
2023-05-17T06:11:52.780Z,16.12
2023-05-17T06:14:19.684Z,17.82
2023-05-17T06:16:48.560Z,17.52
2023-05-17T06:19:15.734Z,19.27
2023-05-17T06:21:42.456Z,19.13
2023-05-17T06:24:09.193Z,17.43
2023-05-17T06:26:35.929Z,18.58
2023-05-17T06:29:02.660Z,19.44
2023-05-17T06:31:29.425Z,19.16
2023-05-17T06:33:58.094Z,20.42
2023-05-17T06:36:25.401Z,18.08
2023-05-17T06:38:52.243Z,18.40
2023-05-17T06:41:19.001Z,17.45
2023-05-17T06:43:48.201Z,18.72
2023-05-17T06:46:14.879Z,18.70
2023-05-17T06:48:41.791Z,18.67
2023-05-17T06:51:10.966Z,17.41
2023-05-17T06:53:37.661Z,18.87
2023-05-17T06:56:04.591Z,17.43
2023-05-17T06:58:32.644Z,19.42
2023-05-17T07:00:59.303Z,15.31
2023-05-17T07:03:26.563Z,14.81
2023-05-17T07:05:53.318Z,13.93
2023-05-17T07:08:19.975Z,12.75
2023-05-17T07:10:46.655Z,13.42
2023-05-17T07:13:13.460Z,13.69
2023-05-17T07:15:40.207Z,13.48
2023-05-17T07:18:07.012Z,14.53
2023-05-17T07:20:33.794Z,13.96
2023-05-17T07:23:00.915Z,14.45
2023-05-17T07:25:27.913Z,13.79
2023-05-17T07:27:57.052Z,12.99
2023-05-17T07:30:23.893Z,13.17
2023-05-17T07:32:50.761Z,14.15
2023-05-17T07:35:19.675Z,14.04
2023-05-17T07:37:47.900Z,14.15
2023-05-17T07:40:14.635Z,12.96
2023-05-17T07:42:41.835Z,12.25
2023-05-17T07:45:09.213Z,13.99
2023-05-17T07:47:36.095Z,13.07
2023-05-17T07:50:04.284Z,11.82
2023-05-17T07:52:33.028Z,13.42
2023-05-17T07:54:59.802Z,12.85
2023-05-17T07:57:27.581Z,12.98
2023-05-17T07:59:54.429Z,12.78
2023-05-17T08:02:21.184Z,13.10
2023-05-17T08:04:47.900Z,12.22
2023-05-17T08:07:14.666Z,11.52
2023-05-17T08:09:44.213Z,12.07
2023-05-17T08:12:12.274Z,12.50
2023-05-17T08:14:39.748Z,12.74
2023-05-17T08:17:06.381Z,13.05
2023-05-17T08:19:33.350Z,13.81
2023-05-17T08:22:00.121Z,13.18
2023-05-17T08:24:26.778Z,13.39
2023-05-17T08:26:53.530Z,14.70
2023-05-17T08:29:20.209Z,13.52
2023-05-17T08:31:46.892Z,14.06
2023-05-17T08:34:13.724Z,14.04
2023-05-17T08:36:40.787Z,12.52
2023-05-17T08:39:08.627Z,13.38
2023-05-17T08:41:38.466Z,12.87
2023-05-17T08:44:06.447Z,12.18
2023-05-17T08:46:35.008Z,14.23
2023-05-17T08:49:05.102Z,16.55
2023-05-17T08:51:32.743Z,14.53
2023-05-17T08:53:59.934Z,15.83
2023-05-17T08:56:31.090Z,15.24
2023-05-17T08:58:58.950Z,13.89
2023-05-17T09:01:27.454Z,14.42
2023-05-17T09:03:55.403Z,15.73
2023-05-17T09:06:23.087Z,16.17
2023-05-17T09:08:56.356Z,16.46
2023-05-17T09:11:28.735Z,14.10
2023-05-17T09:14:06.371Z,16.24
2023-05-17T09:16:37.856Z,16.05
2023-05-17T09:19:07.142Z,15.40
2023-05-17T09:21:34.284Z,14.91
2023-05-17T09:26:42.334Z,13.03
2023-05-17T09:29:16.577Z,13.23
2023-05-17T09:31:44.258Z,14.67
2023-05-17T09:34:11.682Z,16.04
2023-05-17T09:36:42.544Z,16.36
2023-05-17T09:39:12.668Z,13.28
2023-05-17T09:41:43.466Z,15.52
2023-05-17T09:44:11.641Z,15.31
2023-05-17T09:46:42.362Z,14.83
2023-05-17T09:49:09.385Z,14.94
2023-05-17T09:51:55.179Z,17.23
2023-05-17T09:54:21.944Z,17.63
2023-05-17T09:57:07.628Z,18.41
2023-05-17T09:59:34.347Z,19.76
2023-05-17T10:02:02.515Z,20.23
2023-05-17T10:04:32.197Z,17.53
2023-05-17T10:07:01.151Z,15.25
2023-05-17T10:09:34.447Z,14.38
2023-05-17T10:12:03.194Z,13.58
2023-05-17T10:14:33.744Z,13.46
2023-05-17T10:17:03.202Z,14.50
2023-05-17T10:19:31.328Z,14.49
2023-05-17T10:22:05.209Z,15.27
2023-05-17T10:24:46.569Z,15.18
2023-05-17T10:27:13.495Z,14.33
2023-05-17T10:29:41.669Z,14.92
2023-05-17T10:32:09.249Z,12.97
2023-05-17T10:34:39.226Z,14.46
2023-05-17T10:37:06.714Z,15.14
2023-05-17T10:39:34.919Z,13.83
2023-05-17T10:42:14.349Z,14.01
2023-05-17T10:44:43.006Z,14.07
2023-05-17T10:47:11.624Z,12.70
2023-05-17T10:49:45.123Z,12.59
2023-05-17T10:52:17.107Z,12.90
2023-05-17T10:54:47.640Z,13.12
2023-05-17T11:00:09.143Z,13.21
2023-05-17T11:02:40.627Z,12.48
2023-05-17T11:05:07.905Z,13.98
2023-05-17T11:07:37.302Z,14.02
2023-05-17T11:10:11.159Z,13.62
2023-05-17T11:12:55.392Z,14.75
2023-05-17T11:15:26.510Z,15.37
2023-05-17T11:17:54.232Z,16.00
2023-05-17T11:20:24.266Z,14.64
2023-05-17T11:23:02.283Z,13.80
2023-05-17T11:25:35.830Z,12.55
2023-05-17T11:28:17.736Z,13.27
2023-05-17T11:30:51.142Z,15.42
2023-05-17T11:33:32.438Z,15.73
2023-05-17T11:36:05.271Z,14.92
2023-05-17T11:38:32.823Z,15.98
2023-05-17T11:41:26.513Z,15.67
2023-05-17T11:43:55.361Z,15.62
2023-05-17T11:46:24.197Z,14.44
2023-05-17T11:48:53.494Z,14.84
2023-05-17T11:51:22.826Z,13.44
2023-05-17T11:53:55.141Z,15.04
2023-05-17T11:56:29.212Z,15.95
2023-05-17T11:59:00.088Z,14.34
2023-05-17T12:01:26.885Z,13.97
2023-05-17T12:04:00.391Z,13.30
2023-05-17T12:06:28.819Z,12.71
2023-05-17T12:08:55.733Z,13.38
2023-05-17T12:11:22.661Z,12.34
2023-05-17T12:13:52.082Z,13.09
2023-05-17T12:16:22.111Z,13.56
2023-05-17T12:18:50.420Z,14.68
2023-05-17T12:21:18.454Z,15.03
2023-05-17T12:23:48.838Z,13.99
2023-05-17T12:26:22.404Z,15.42
2023-05-17T12:29:00.013Z,13.88
2023-05-17T12:31:34.049Z,14.54
2023-05-17T12:34:02.498Z,15.15
2023-05-17T12:36:30.307Z,15.69
2023-05-17T12:38:57.499Z,14.85
2023-05-17T12:41:28.699Z,13.85
2023-05-17T12:44:02.987Z,13.85
2023-05-17T12:46:40.410Z,14.04
2023-05-17T12:49:08.816Z,14.93
2023-05-17T12:51:45.923Z,13.86
2023-05-17T12:54:16.252Z,13.56
2023-05-17T12:56:46.780Z,13.31
2023-05-17T12:59:14.368Z,13.68
2023-05-17T13:01:44.230Z,13.86
2023-05-17T13:04:11.662Z,14.01
2023-05-17T13:06:51.646Z,13.39
2023-05-17T13:09:21.090Z,13.34
2023-05-17T13:11:51.143Z,13.98
2023-05-17T13:14:40.667Z,13.71
2023-05-17T13:17:11.122Z,14.88
2023-05-17T13:19:38.776Z,13.64
2023-05-17T13:22:06.807Z,13.51
2023-05-17T13:24:35.526Z,14.06
2023-05-17T13:27:02.695Z,14.03
2023-05-17T13:29:38.717Z,14.12
2023-05-17T13:32:08.535Z,13.77
2023-05-17T13:34:36.108Z,14.18
2023-05-17T13:37:03.085Z,14.42
2023-05-17T13:39:29.914Z,13.11
2023-05-17T13:41:56.998Z,13.93
2023-05-17T13:44:23.817Z,13.78
2023-05-17T13:46:50.521Z,13.52
2023-05-17T13:49:18.876Z,12.20
2023-05-17T13:51:46.193Z,13.10
2023-05-17T13:54:13.142Z,12.23
2023-05-17T13:56:40.047Z,12.18
2023-05-17T13:59:06.826Z,12.91
2023-05-17T14:01:33.710Z,13.29
2023-05-17T14:04:00.871Z,13.11
2023-05-17T14:06:28.275Z,13.18
2023-05-17T14:08:55.914Z,13.57
2023-05-17T14:11:22.905Z,14.06
2023-05-17T14:13:49.707Z,14.13
2023-05-17T14:16:16.633Z,13.87
2023-05-17T14:18:43.635Z,13.04
2023-05-17T14:21:10.557Z,12.27
2023-05-17T14:23:37.698Z,12.92
2023-05-17T14:26:07.298Z,11.97
2023-05-17T14:28:37.840Z,11.77
2023-05-17T14:31:06.522Z,12.41
2023-05-17T14:33:33.569Z,12.66
2023-05-17T14:36:00.432Z,13.32
2023-05-17T14:38:27.282Z,13.33
2023-05-17T14:40:54.023Z,13.14
2023-05-17T14:43:20.966Z,13.57
2023-05-17T14:45:47.816Z,13.41
2023-05-17T14:48:14.653Z,13.26
2023-05-17T14:50:41.578Z,13.57
2023-05-17T14:53:08.370Z,13.89
2023-05-17T14:55:35.557Z,13.40
2023-05-17T14:58:02.671Z,13.09
2023-05-17T15:00:29.577Z,12.81
2023-05-17T15:02:56.788Z,12.27
2023-05-17T15:05:24.123Z,12.75
2023-05-17T15:07:50.988Z,12.93
2023-05-17T15:10:17.797Z,12.82
2023-05-17T15:12:44.561Z,12.73
2023-05-17T15:15:11.439Z,12.42
2023-05-17T15:17:38.211Z,12.35
2023-05-17T15:20:05.730Z,12.38
2023-05-17T15:22:33.178Z,12.26
2023-05-17T15:25:00.039Z,12.45
2023-05-17T15:27:27.387Z,12.54
2023-05-17T15:29:54.130Z,12.52
2023-05-17T15:32:21.181Z,12.73
2023-05-17T15:34:48.167Z,12.31
2023-05-17T15:37:14.994Z,12.23
2023-05-17T15:39:41.656Z,12.30
2023-05-17T15:42:08.476Z,12.03
2023-05-17T15:44:35.166Z,11.49
2023-05-17T15:47:03.214Z,11.50
2023-05-17T15:49:34.353Z,11.46
2023-05-17T15:52:01.084Z,11.08
2023-05-17T15:54:27.729Z,11.40
2023-05-17T15:56:54.494Z,11.98
2023-05-17T15:59:21.216Z,11.67
2023-05-17T16:01:47.994Z,11.87
2023-05-17T16:04:14.900Z,12.21
2023-05-17T16:06:41.847Z,12.07
2023-05-17T16:09:08.650Z,12.03
2023-05-17T16:11:35.468Z,11.78
2023-05-17T16:14:02.209Z,11.43
2023-05-17T16:16:28.952Z,11.83
2023-05-17T16:18:55.947Z,11.70
2023-05-17T16:21:22.741Z,12.18
2023-05-17T16:23:49.511Z,12.22
2023-05-17T16:26:16.224Z,12.36
2023-05-17T16:28:43.042Z,11.48
2023-05-17T16:31:10.123Z,10.93
2023-05-17T16:33:36.994Z,11.55
2023-05-17T16:36:05.009Z,11.76
2023-05-17T16:38:31.805Z,11.61
2023-05-17T16:41:03.154Z,11.77
2023-05-17T16:43:30.897Z,11.73
2023-05-17T16:45:57.656Z,11.54
2023-05-17T16:48:24.563Z,11.65
2023-05-17T16:50:51.646Z,11.45
2023-05-17T16:53:18.852Z,11.47
2023-05-17T16:55:45.697Z,11.27
2023-05-17T16:58:13.128Z,11.32
2023-05-17T17:00:39.956Z,11.51
2023-05-17T17:03:09.183Z,11.59
2023-05-17T17:05:36.687Z,10.91
2023-05-17T17:08:03.643Z,11.33
2023-05-17T17:10:30.848Z,11.42
2023-05-17T17:12:58.358Z,10.95
2023-05-17T17:15:25.278Z,11.07
2023-05-17T17:17:52.407Z,10.61
2023-05-17T17:20:19.742Z,10.56
2023-05-17T17:22:46.640Z,10.66
2023-05-17T17:25:13.383Z,10.85
2023-05-17T17:27:40.234Z,10.68
2023-05-17T17:30:07.643Z,10.59
2023-05-17T17:32:34.523Z,10.83
2023-05-17T17:35:01.534Z,10.59
2023-05-17T17:37:28.324Z,10.55
2023-05-17T17:39:55.015Z,10.56
2023-05-17T17:42:21.824Z,10.61
2023-05-17T17:44:48.695Z,10.66
2023-05-17T17:47:15.509Z,9.97
2023-05-17T17:49:42.419Z,10.01
2023-05-17T17:52:09.274Z,10.00
2023-05-17T17:54:35.985Z,9.87
2023-05-17T17:57:03.185Z,10.04
2023-05-17T17:59:30.124Z,10.06
2023-05-17T18:01:57.051Z,9.88
2023-05-17T18:04:23.907Z,9.74
2023-05-17T18:06:50.654Z,9.59
2023-05-17T18:09:17.443Z,9.39
2023-05-17T18:11:44.263Z,9.37
2023-05-17T18:14:11.043Z,9.32
2023-05-17T18:16:37.965Z,9.51
2023-05-17T18:19:04.778Z,9.37
2023-05-17T18:21:31.624Z,9.33
2023-05-17T18:23:58.578Z,9.26
2023-05-17T18:26:25.295Z,9.34
2023-05-17T18:28:52.105Z,9.28
2023-05-17T18:31:19.027Z,9.17
2023-05-17T18:33:45.905Z,9.22
2023-05-17T18:36:12.757Z,9.10
2023-05-17T18:38:39.563Z,9.10
2023-05-17T18:41:06.805Z,8.92
2023-05-17T18:43:33.666Z,8.93
2023-05-17T18:46:00.566Z,8.68
2023-05-17T18:48:27.895Z,8.67
2023-05-17T18:50:55.092Z,8.66
2023-05-17T18:53:21.835Z,8.77
2023-05-17T18:55:48.494Z,8.38
2023-05-17T18:58:15.229Z,8.25
2023-05-17T19:00:42.029Z,8.24
2023-05-17T19:03:08.819Z,8.17
2023-05-17T19:05:35.844Z,8.07
2023-05-17T19:08:02.610Z,8.13
2023-05-17T19:10:29.482Z,8.14
2023-05-17T19:12:56.502Z,8.06
2023-05-17T19:15:23.193Z,7.87
2023-05-17T19:17:50.129Z,7.88
2023-05-17T19:20:17.050Z,7.89
2023-05-17T19:22:43.765Z,7.74
2023-05-17T19:25:10.607Z,7.39
2023-05-17T19:27:37.384Z,7.51
2023-05-17T19:30:04.846Z,7.65
2023-05-17T19:32:33.156Z,7.59
2023-05-17T19:35:01.169Z,7.57
2023-05-17T19:37:28.621Z,7.62
2023-05-17T19:39:55.439Z,7.43
2023-05-17T19:42:22.330Z,7.37
2023-05-17T19:44:49.020Z,7.33
2023-05-17T19:47:15.808Z,7.12
2023-05-17T19:49:43.343Z,7.18
2023-05-17T19:52:10.315Z,7.00
2023-05-17T19:54:37.214Z,7.22
2023-05-17T19:57:04.127Z,7.06
2023-05-17T19:59:30.837Z,7.04
2023-05-17T20:01:57.902Z,7.08
2023-05-17T20:04:24.719Z,7.11
2023-05-17T20:06:51.916Z,7.06
2023-05-17T20:09:18.718Z,7.14
2023-05-17T20:11:45.579Z,7.06
2023-05-17T20:14:12.488Z,7.08
2023-05-17T20:16:39.404Z,6.92
2023-05-17T20:19:06.504Z,7.06
2023-05-17T20:21:33.620Z,7.00
2023-05-17T20:24:06.616Z,6.98
2023-05-17T20:26:37.285Z,6.93
2023-05-17T20:29:07.187Z,6.83
2023-05-17T20:31:35.367Z,6.82
2023-05-17T20:34:03.434Z,6.69
2023-05-17T20:36:31.339Z,6.55
2023-05-17T20:38:58.072Z,6.57
2023-05-17T20:41:24.802Z,6.52
2023-05-17T20:43:51.960Z,6.35
2023-05-17T20:46:18.780Z,6.51
2023-05-17T20:48:48.011Z,6.40
2023-05-17T20:51:15.732Z,6.36
2023-05-17T20:53:42.616Z,6.30
2023-05-17T20:56:09.544Z,6.27
2023-05-17T20:58:36.643Z,6.31
2023-05-17T21:01:03.511Z,6.25
2023-05-17T21:03:34.003Z,6.27
2023-05-17T21:06:01.847Z,6.28
2023-05-17T21:08:28.816Z,6.15
2023-05-17T21:10:56.154Z,6.29
2023-05-17T21:13:25.718Z,6.28
2023-05-17T21:15:54.619Z,6.26
2023-05-17T21:18:22.140Z,6.15
2023-05-17T21:20:50.447Z,6.16
2023-05-17T21:23:18.083Z,6.11
2023-05-17T21:25:44.788Z,6.19
2023-05-17T21:28:11.642Z,6.07
2023-05-17T21:30:38.399Z,6.05
2023-05-17T21:33:05.717Z,6.12
2023-05-17T21:35:32.849Z,6.08
2023-05-17T21:37:59.663Z,6.07
2023-05-17T21:40:26.482Z,5.98
2023-05-17T21:42:53.295Z,6.02
2023-05-17T21:45:20.177Z,6.03
2023-05-17T21:47:47.190Z,5.99
2023-05-17T21:50:14.021Z,6.00
2023-05-17T21:52:40.852Z,5.95
2023-05-17T21:55:08.346Z,5.96
2023-05-17T21:57:36.541Z,5.96
2023-05-17T22:00:07.998Z,5.94
2023-05-17T22:02:35.858Z,5.98
2023-05-17T22:05:02.861Z,5.99
2023-05-17T22:07:29.831Z,6.00
2023-05-17T22:09:58.370Z,5.95
2023-05-17T22:12:26.295Z,5.90
2023-05-17T22:14:57.001Z,5.92
2023-05-17T22:17:42.509Z,5.89
2023-05-17T22:20:16.863Z,5.92
2023-05-17T22:22:44.053Z,5.79
2023-05-17T22:25:10.941Z,5.88
2023-05-17T22:27:37.638Z,5.90
2023-05-17T22:30:04.788Z,5.91
2023-05-17T22:32:31.989Z,5.82
2023-05-17T22:34:58.682Z,5.86
2023-05-17T22:37:25.353Z,5.83
2023-05-17T22:39:52.049Z,5.78
2023-05-17T22:42:18.801Z,5.78
2023-05-17T22:44:45.645Z,5.69
2023-05-17T22:47:14.829Z,5.72
2023-05-17T22:49:42.256Z,5.73
2023-05-17T22:52:10.976Z,5.70
2023-05-17T22:54:38.332Z,5.74
2023-05-17T22:57:05.938Z,5.69
2023-05-17T22:59:33.220Z,5.72
2023-05-17T23:02:00.962Z,5.70
2023-05-17T23:04:30.180Z,5.68
2023-05-17T23:07:03.771Z,5.67
2023-05-17T23:09:30.567Z,5.65
2023-05-17T23:12:00.346Z,5.59
2023-05-17T23:14:27.336Z,5.63
2023-05-17T23:16:54.076Z,5.68
2023-05-17T23:19:21.142Z,5.68
2023-05-17T23:21:49.056Z,5.66
2023-05-17T23:24:15.866Z,5.60
2023-05-17T23:26:42.514Z,5.55
2023-05-17T23:29:10.682Z,5.50
2023-05-17T23:31:37.936Z,5.51
2023-05-17T23:34:06.838Z,5.49
2023-05-17T23:36:33.716Z,5.51
2023-05-17T23:39:00.521Z,5.52
2023-05-17T23:41:29.314Z,5.49
2023-05-17T23:43:57.033Z,5.46
2023-05-17T23:46:23.976Z,5.49
2023-05-17T23:48:50.873Z,5.50
2023-05-17T23:51:20.648Z,5.49
2023-05-17T23:53:50.447Z,5.50
2023-05-17T23:56:18.259Z,5.50
2023-05-17T23:58:45.581Z,5.45
